sensor_id;sensor_type;location;lat;lon;timestamp;temperature;humidity
46336;DHT22;31365;48.858;8.530;2022-09-13T00:01:17;16.50;99.90
46336;DHT22;31365;48.858;8.530;2022-09-13T00:03:45;16.50;99.90
46336;DHT22;31365;48.858;8.530;2022-09-13T00:06:15;16.50;99.90
46336;DHT22;31365;48.858;8.530;2022-09-13T00:08:47;16.50;99.90
46336;DHT22;31365;48.858;8.530;2022-09-13T00:11:19;16.50;99.90
46336;DHT22;31365;48.858;8.530;2022-09-13T00:13:49;16.40;99.90
46336;DHT22;31365;48.858;8.530;2022-09-13T00:16:19;16.40;99.90
46336;DHT22;31365;48.858;8.530;2022-09-13T00:18:49;16.40;99.90
46336;DHT22;31365;48.858;8.530;2022-09-13T00:21:20;16.50;99.90
46336;DHT22;31365;48.858;8.530;2022-09-13T00:23:52;16.40;99.90
46336;DHT22;31365;48.858;8.530;2022-09-13T00:26:23;16.30;99.90
46336;DHT22;31365;48.858;8.530;2022-09-13T00:28:54;16.30;99.90
46336;DHT22;31365;48.858;8.530;2022-09-13T00:31:26;16.20;99.90
46336;DHT22;31365;48.858;8.530;2022-09-13T00:33:57;16.20;99.90
46336;DHT22;31365;48.858;8.530;2022-09-13T00:36:27;16.20;99.90
46336;DHT22;31365;48.858;8.530;2022-09-13T00:38:58;16.20;99.90
46336;DHT22;31365;48.858;8.530;2022-09-13T00:41:27;16.10;99.90
46336;DHT22;31365;48.858;8.530;2022-09-13T00:43:57;16.10;99.90
46336;DHT22;31365;48.858;8.530;2022-09-13T00:46:33;16.00;99.90
46336;DHT22;31365;48.858;8.530;2022-09-13T00:49:11;16.00;99.90
46336;DHT22;31365;48.858;8.530;2022-09-13T00:51:46;15.90;99.90
46336;DHT22;31365;48.858;8.530;2022-09-13T00:54:21;16.00;99.90
46336;DHT22;31365;48.858;8.530;2022-09-13T00:56:55;16.00;99.90
46336;DHT22;31365;48.858;8.530;2022-09-13T00:59:32;15.90;99.90
46336;DHT22;31365;48.858;8.530;2022-09-13T01:02:04;15.80;99.90
46336;DHT22;31365;48.858;8.530;2022-09-13T01:04:34;15.90;99.90
46336;DHT22;31365;48.858;8.530;2022-09-13T01:07:07;15.90;99.90
46336;DHT22;31365;48.858;8.530;2022-09-13T01:09:43;15.80;99.90
46336;DHT22;31365;48.858;8.530;2022-09-13T01:12:24;15.80;99.90
46336;DHT22;31365;48.858;8.530;2022-09-13T01:15:00;15.80;99.90
46336;DHT22;31365;48.858;8.530;2022-09-13T01:17:32;15.80;99.90
46336;DHT22;31365;48.858;8.530;2022-09-13T01:20:04;15.80;99.90
46336;DHT22;31365;48.858;8.530;2022-09-13T01:22:50;15.80;99.90
46336;DHT22;31365;48.858;8.530;2022-09-13T01:32:27;15.70;99.90
46336;DHT22;31365;48.858;8.530;2022-09-13T01:35:12;15.60;99.90
46336;DHT22;31365;48.858;8.530;2022-09-13T01:37:55;15.60;99.90
46336;DHT22;31365;48.858;8.530;2022-09-13T01:40:42;15.60;99.90
46336;DHT22;31365;48.858;8.530;2022-09-13T01:43:26;15.60;99.90
46336;DHT22;31365;48.858;8.530;2022-09-13T01:46:04;15.50;99.90
46336;DHT22;31365;48.858;8.530;2022-09-13T01:48:51;15.50;99.90
46336;DHT22;31365;48.858;8.530;2022-09-13T01:51:28;15.40;99.90
46336;DHT22;31365;48.858;8.530;2022-09-13T01:54:13;15.40;99.90
46336;DHT22;31365;48.858;8.530;2022-09-13T01:56:53;15.40;99.90
46336;DHT22;31365;48.858;8.530;2022-09-13T01:59:31;15.40;99.90
46336;DHT22;31365;48.858;8.530;2022-09-13T02:02:11;15.30;99.90
46336;DHT22;31365;48.858;8.530;2022-09-13T02:04:50;15.40;99.90
46336;DHT22;31365;48.858;8.530;2022-09-13T02:07:25;15.20;99.90
46336;DHT22;31365;48.858;8.530;2022-09-13T02:10:02;15.20;99.90
46336;DHT22;31365;48.858;8.530;2022-09-13T02:12:35;15.10;99.90
46336;DHT22;31365;48.858;8.530;2022-09-13T02:15:11;15.10;99.90
46336;DHT22;31365;48.858;8.530;2022-09-13T02:17:46;15.10;99.90
46336;DHT22;31365;48.858;8.530;2022-09-13T02:20:23;15.10;99.90
46336;DHT22;31365;48.858;8.530;2022-09-13T02:22:57;15.00;99.90
46336;DHT22;31365;48.858;8.530;2022-09-13T02:25:31;14.90;99.90
46336;DHT22;31365;48.858;8.530;2022-09-13T02:28:06;14.90;99.90
46336;DHT22;31365;48.858;8.530;2022-09-13T02:30:40;15.10;99.90
46336;DHT22;31365;48.858;8.530;2022-09-13T02:33:17;14.90;99.90
46336;DHT22;31365;48.858;8.530;2022-09-13T02:35:53;14.80;99.90
46336;DHT22;31365;48.858;8.530;2022-09-13T02:38:30;14.80;99.90
46336;DHT22;31365;48.858;8.530;2022-09-13T02:41:08;14.80;99.90
46336;DHT22;31365;48.858;8.530;2022-09-13T02:43:46;14.80;99.90
46336;DHT22;31365;48.858;8.530;2022-09-13T02:46:24;14.80;99.90
46336;DHT22;31365;48.858;8.530;2022-09-13T02:49:09;14.80;99.90
46336;DHT22;31365;48.858;8.530;2022-09-13T02:51:44;14.80;99.90
46336;DHT22;31365;48.858;8.530;2022-09-13T02:54:24;14.80;99.90
46336;DHT22;31365;48.858;8.530;2022-09-13T02:57:04;14.80;99.90
46336;DHT22;31365;48.858;8.530;2022-09-13T02:59:35;14.80;99.90
46336;DHT22;31365;48.858;8.530;2022-09-13T03:02:07;14.80;99.90
46336;DHT22;31365;48.858;8.530;2022-09-13T03:04:38;14.80;99.90
46336;DHT22;31365;48.858;8.530;2022-09-13T03:07:10;14.80;99.90
46336;DHT22;31365;48.858;8.530;2022-09-13T03:09:44;14.80;99.90
46336;DHT22;31365;48.858;8.530;2022-09-13T03:12:28;14.80;99.90
46336;DHT22;31365;48.858;8.530;2022-09-13T03:15:14;14.80;99.90
46336;DHT22;31365;48.858;8.530;2022-09-13T03:17:55;14.70;99.90
46336;DHT22;31365;48.858;8.530;2022-09-13T03:20:40;14.70;99.90
46336;DHT22;31365;48.858;8.530;2022-09-13T03:23:34;14.70;99.90
46336;DHT22;31365;48.858;8.530;2022-09-13T03:26:22;14.60;99.90
46336;DHT22;31365;48.858;8.530;2022-09-13T03:29:08;14.60;99.90
46336;DHT22;31365;48.858;8.530;2022-09-13T03:31:49;14.60;99.90
46336;DHT22;31365;48.858;8.530;2022-09-13T03:34:29;14.60;99.90
46336;DHT22;31365;48.858;8.530;2022-09-13T03:37:09;14.50;99.90
46336;DHT22;31365;48.858;8.530;2022-09-13T03:39:51;14.50;99.90
46336;DHT22;31365;48.858;8.530;2022-09-13T03:42:28;14.50;99.90
46336;DHT22;31365;48.858;8.530;2022-09-13T03:45:02;14.40;99.90
46336;DHT22;31365;48.858;8.530;2022-09-13T03:47:34;14.50;99.90
46336;DHT22;31365;48.858;8.530;2022-09-13T03:50:07;14.50;99.90
46336;DHT22;31365;48.858;8.530;2022-09-13T03:52:37;14.50;99.90
46336;DHT22;31365;48.858;8.530;2022-09-13T03:55:13;14.60;99.90
46336;DHT22;31365;48.858;8.530;2022-09-13T03:57:41;14.60;99.90
46336;DHT22;31365;48.858;8.530;2022-09-13T04:00:12;14.60;99.90
46336;DHT22;31365;48.858;8.530;2022-09-13T04:02:43;14.70;99.90
46336;DHT22;31365;48.858;8.530;2022-09-13T04:05:12;14.70;99.90
46336;DHT22;31365;48.858;8.530;2022-09-13T04:07:41;14.70;99.90
46336;DHT22;31365;48.858;8.530;2022-09-13T04:10:09;14.80;99.90
46336;DHT22;31365;48.858;8.530;2022-09-13T04:12:41;14.80;99.90
46336;DHT22;31365;48.858;8.530;2022-09-13T04:15:09;14.80;99.90
46336;DHT22;31365;48.858;8.530;2022-09-13T04:17:37;14.80;99.90
46336;DHT22;31365;48.858;8.530;2022-09-13T04:20:06;14.70;99.90
46336;DHT22;31365;48.858;8.530;2022-09-13T04:22:34;14.80;99.90
46336;DHT22;31365;48.858;8.530;2022-09-13T04:25:03;14.80;99.90
46336;DHT22;31365;48.858;8.530;2022-09-13T04:27:32;14.80;99.90
46336;DHT22;31365;48.858;8.530;2022-09-13T04:30:03;14.80;99.90
46336;DHT22;31365;48.858;8.530;2022-09-13T04:32:32;14.80;99.90
46336;DHT22;31365;48.858;8.530;2022-09-13T04:35:01;14.80;99.90
46336;DHT22;31365;48.858;8.530;2022-09-13T04:37:29;14.90;99.90
46336;DHT22;31365;48.858;8.530;2022-09-13T04:39:57;14.80;99.90
46336;DHT22;31365;48.858;8.530;2022-09-13T04:42:25;14.80;99.90
46336;DHT22;31365;48.858;8.530;2022-09-13T04:44:54;14.80;99.90
46336;DHT22;31365;48.858;8.530;2022-09-13T04:47:23;14.80;99.90
46336;DHT22;31365;48.858;8.530;2022-09-13T04:49:53;14.80;99.90
46336;DHT22;31365;48.858;8.530;2022-09-13T04:52:21;14.80;99.90
46336;DHT22;31365;48.858;8.530;2022-09-13T04:54:50;14.80;99.90
46336;DHT22;31365;48.858;8.530;2022-09-13T04:57:18;14.80;99.90
46336;DHT22;31365;48.858;8.530;2022-09-13T04:59:46;14.80;99.90
46336;DHT22;31365;48.858;8.530;2022-09-13T05:02:15;14.80;99.90
46336;DHT22;31365;48.858;8.530;2022-09-13T05:04:45;14.80;99.90
46336;DHT22;31365;48.858;8.530;2022-09-13T05:07:13;14.80;99.90
46336;DHT22;31365;48.858;8.530;2022-09-13T05:09:41;14.80;99.90
46336;DHT22;31365;48.858;8.530;2022-09-13T05:12:09;14.80;99.90
46336;DHT22;31365;48.858;8.530;2022-09-13T05:14:38;14.80;99.90
46336;DHT22;31365;48.858;8.530;2022-09-13T05:17:07;14.80;99.90
46336;DHT22;31365;48.858;8.530;2022-09-13T05:19:35;15.00;99.90
46336;DHT22;31365;48.858;8.530;2022-09-13T05:22:04;15.00;99.90
46336;DHT22;31365;48.858;8.530;2022-09-13T05:24:33;14.90;99.90
46336;DHT22;31365;48.858;8.530;2022-09-13T05:27:01;15.00;99.90
46336;DHT22;31365;48.858;8.530;2022-09-13T05:29:30;15.00;99.90
46336;DHT22;31365;48.858;8.530;2022-09-13T05:31:58;15.10;99.90
46336;DHT22;31365;48.858;8.530;2022-09-13T05:34:26;15.10;99.90
46336;DHT22;31365;48.858;8.530;2022-09-13T05:36:55;15.10;99.90
46336;DHT22;31365;48.858;8.530;2022-09-13T05:39:25;15.10;99.90
46336;DHT22;31365;48.858;8.530;2022-09-13T05:42:05;15.10;99.90
46336;DHT22;31365;48.858;8.530;2022-09-13T05:44:33;15.20;99.90
46336;DHT22;31365;48.858;8.530;2022-09-13T05:47:01;15.20;99.90
46336;DHT22;31365;48.858;8.530;2022-09-13T05:49:30;15.20;99.90
46336;DHT22;31365;48.858;8.530;2022-09-13T05:51:58;15.20;99.90
46336;DHT22;31365;48.858;8.530;2022-09-13T05:54:28;15.20;99.90
46336;DHT22;31365;48.858;8.530;2022-09-13T05:56:57;15.20;99.90
46336;DHT22;31365;48.858;8.530;2022-09-13T05:59:25;15.30;99.90
46336;DHT22;31365;48.858;8.530;2022-09-13T06:01:53;15.20;99.90
46336;DHT22;31365;48.858;8.530;2022-09-13T06:04:22;15.30;99.90
46336;DHT22;31365;48.858;8.530;2022-09-13T06:06:51;15.30;99.90
46336;DHT22;31365;48.858;8.530;2022-09-13T06:09:19;15.40;99.90
46336;DHT22;31365;48.858;8.530;2022-09-13T06:11:49;15.40;99.90
46336;DHT22;31365;48.858;8.530;2022-09-13T06:14:17;15.50;99.90
46336;DHT22;31365;48.858;8.530;2022-09-13T06:16:45;15.60;99.90
46336;DHT22;31365;48.858;8.530;2022-09-13T06:19:14;15.70;99.90
46336;DHT22;31365;48.858;8.530;2022-09-13T06:21:42;15.80;99.90
46336;DHT22;31365;48.858;8.530;2022-09-13T06:24:10;15.90;99.90
46336;DHT22;31365;48.858;8.530;2022-09-13T06:26:39;15.90;99.90
46336;DHT22;31365;48.858;8.530;2022-09-13T06:29:10;16.10;99.90
46336;DHT22;31365;48.858;8.530;2022-09-13T06:31:39;16.00;99.90
46336;DHT22;31365;48.858;8.530;2022-09-13T06:34:11;16.10;99.90
46336;DHT22;31365;48.858;8.530;2022-09-13T06:36:42;16.20;99.90
46336;DHT22;31365;48.858;8.530;2022-09-13T06:39:10;16.30;99.90
46336;DHT22;31365;48.858;8.530;2022-09-13T06:41:39;16.30;99.90
46336;DHT22;31365;48.858;8.530;2022-09-13T06:44:09;16.40;99.90
46336;DHT22;31365;48.858;8.530;2022-09-13T06:46:38;16.60;99.90
46336;DHT22;31365;48.858;8.530;2022-09-13T06:49:08;16.70;99.90
46336;DHT22;31365;48.858;8.530;2022-09-13T06:51:36;17.00;99.90
46336;DHT22;31365;48.858;8.530;2022-09-13T06:54:05;17.10;99.90
46336;DHT22;31365;48.858;8.530;2022-09-13T06:56:34;17.20;99.90
46336;DHT22;31365;48.858;8.530;2022-09-13T06:59:06;17.40;99.90
46336;DHT22;31365;48.858;8.530;2022-09-13T07:01:39;17.50;99.90
46336;DHT22;31365;48.858;8.530;2022-09-13T07:04:11;17.50;99.90
46336;DHT22;31365;48.858;8.530;2022-09-13T07:06:42;17.70;99.90
46336;DHT22;31365;48.858;8.530;2022-09-13T07:09:15;17.80;99.90
46336;DHT22;31365;48.858;8.530;2022-09-13T07:11:46;17.90;99.90
46336;DHT22;31365;48.858;8.530;2022-09-13T07:14:18;18.20;99.90
46336;DHT22;31365;48.858;8.530;2022-09-13T07:16:49;18.40;99.90
46336;DHT22;31365;48.858;8.530;2022-09-13T07:19:20;18.70;99.90
46336;DHT22;31365;48.858;8.530;2022-09-13T07:21:53;19.10;99.90
46336;DHT22;31365;48.858;8.530;2022-09-13T07:24:23;19.40;99.90
46336;DHT22;31365;48.858;8.530;2022-09-13T07:26:53;19.70;99.90
46336;DHT22;31365;48.858;8.530;2022-09-13T07:29:22;19.90;99.90
46336;DHT22;31365;48.858;8.530;2022-09-13T07:31:53;20.10;99.90
46336;DHT22;31365;48.858;8.530;2022-09-13T07:34:24;20.30;99.90
46336;DHT22;31365;48.858;8.530;2022-09-13T07:36:53;20.40;99.90
46336;DHT22;31365;48.858;8.530;2022-09-13T07:39:22;20.50;99.90
46336;DHT22;31365;48.858;8.530;2022-09-13T07:41:50;20.50;99.90
46336;DHT22;31365;48.858;8.530;2022-09-13T07:44:19;20.60;99.90
46336;DHT22;31365;48.858;8.530;2022-09-13T07:46:48;20.60;99.90
46336;DHT22;31365;48.858;8.530;2022-09-13T07:49:18;20.70;99.90
46336;DHT22;31365;48.858;8.530;2022-09-13T07:51:47;20.70;99.90
46336;DHT22;31365;48.858;8.530;2022-09-13T07:54:18;20.70;99.90
46336;DHT22;31365;48.858;8.530;2022-09-13T07:56:47;20.70;99.90
46336;DHT22;31365;48.858;8.530;2022-09-13T07:59:17;20.50;99.90
46336;DHT22;31365;48.858;8.530;2022-09-13T08:01:48;20.60;99.90
46336;DHT22;31365;48.858;8.530;2022-09-13T08:04:22;20.60;99.90
46336;DHT22;31365;48.858;8.530;2022-09-13T08:06:53;20.70;99.90
46336;DHT22;31365;48.858;8.530;2022-09-13T08:09:21;20.80;99.90
46336;DHT22;31365;48.858;8.530;2022-09-13T08:11:50;20.90;99.90
46336;DHT22;31365;48.858;8.530;2022-09-13T08:14:21;21.10;99.90
46336;DHT22;31365;48.858;8.530;2022-09-13T08:16:50;21.30;99.90
46336;DHT22;31365;48.858;8.530;2022-09-13T08:19:23;21.40;99.90
46336;DHT22;31365;48.858;8.530;2022-09-13T08:21:51;21.60;99.90
46336;DHT22;31365;48.858;8.530;2022-09-13T08:24:20;21.70;99.90
46336;DHT22;31365;48.858;8.530;2022-09-13T08:26:49;21.80;99.90
46336;DHT22;31365;48.858;8.530;2022-09-13T08:29:18;22.00;99.90
46336;DHT22;31365;48.858;8.530;2022-09-13T08:31:46;22.00;99.90
46336;DHT22;31365;48.858;8.530;2022-09-13T08:34:15;22.00;99.90
46336;DHT22;31365;48.858;8.530;2022-09-13T08:36:45;22.00;99.90
46336;DHT22;31365;48.858;8.530;2022-09-13T08:39:13;22.00;99.90
46336;DHT22;31365;48.858;8.530;2022-09-13T08:42:18;22.10;99.90
46336;DHT22;31365;48.858;8.530;2022-09-13T08:44:53;22.20;99.90
46336;DHT22;31365;48.858;8.530;2022-09-13T08:47:33;22.30;99.90
46336;DHT22;31365;48.858;8.530;2022-09-13T08:50:11;22.50;99.90
46336;DHT22;31365;48.858;8.530;2022-09-13T08:52:56;22.60;99.90
46336;DHT22;31365;48.858;8.530;2022-09-13T08:55:42;22.70;99.90
46336;DHT22;31365;48.858;8.530;2022-09-13T08:58:32;22.70;99.90
46336;DHT22;31365;48.858;8.530;2022-09-13T09:01:19;22.70;99.90
46336;DHT22;31365;48.858;8.530;2022-09-13T09:04:00;22.80;99.90
46336;DHT22;31365;48.858;8.530;2022-09-13T09:06:35;22.90;99.90
46336;DHT22;31365;48.858;8.530;2022-09-13T09:09:07;23.20;99.90
46336;DHT22;31365;48.858;8.530;2022-09-13T09:11:43;23.30;99.90
46336;DHT22;31365;48.858;8.530;2022-09-13T09:14:21;23.50;99.90
46336;DHT22;31365;48.858;8.530;2022-09-13T09:16:59;23.70;99.90
46336;DHT22;31365;48.858;8.530;2022-09-13T09:19:35;23.90;99.90
46336;DHT22;31365;48.858;8.530;2022-09-13T09:22:12;24.10;99.90
46336;DHT22;31365;48.858;8.530;2022-09-13T09:24:48;24.20;99.90
46336;DHT22;31365;48.858;8.530;2022-09-13T09:27:20;24.30;99.90
46336;DHT22;31365;48.858;8.530;2022-09-13T09:29:51;24.30;99.90
46336;DHT22;31365;48.858;8.530;2022-09-13T09:32:44;24.30;99.90
46336;DHT22;31365;48.858;8.530;2022-09-13T09:35:30;24.40;99.90
46336;DHT22;31365;48.858;8.530;2022-09-13T09:38:36;24.50;99.90
46336;DHT22;31365;48.858;8.530;2022-09-13T09:41:14;24.50;99.90
46336;DHT22;31365;48.858;8.530;2022-09-13T09:43:57;24.70;99.90
46336;DHT22;31365;48.858;8.530;2022-09-13T09:46:32;24.60;99.90
46336;DHT22;31365;48.858;8.530;2022-09-13T09:49:11;24.50;99.90
46336;DHT22;31365;48.858;8.530;2022-09-13T09:51:58;24.60;99.90
46336;DHT22;31365;48.858;8.530;2022-09-13T09:54:29;24.70;99.90
46336;DHT22;31365;48.858;8.530;2022-09-13T09:56:58;24.80;99.90
46336;DHT22;31365;48.858;8.530;2022-09-13T09:59:29;25.10;99.90
46336;DHT22;31365;48.858;8.530;2022-09-13T10:02:01;25.20;99.90
46336;DHT22;31365;48.858;8.530;2022-09-13T10:04:41;25.30;99.90
46336;DHT22;31365;48.858;8.530;2022-09-13T10:07:22;25.40;99.90
46336;DHT22;31365;48.858;8.530;2022-09-13T10:09:58;25.50;99.90
46336;DHT22;31365;48.858;8.530;2022-09-13T10:12:33;25.80;99.90
46336;DHT22;31365;48.858;8.530;2022-09-13T10:15:12;26.00;99.90
46336;DHT22;31365;48.858;8.530;2022-09-13T10:17:59;26.30;99.90
46336;DHT22;31365;48.858;8.530;2022-09-13T10:20:29;26.60;99.90
46336;DHT22;31365;48.858;8.530;2022-09-13T10:23:17;26.70;99.90
46336;DHT22;31365;48.858;8.530;2022-09-13T10:26:03;26.80;99.90
46336;DHT22;31365;48.858;8.530;2022-09-13T10:28:41;26.90;99.90
46336;DHT22;31365;48.858;8.530;2022-09-13T10:31:15;27.00;99.90
46336;DHT22;31365;48.858;8.530;2022-09-13T10:33:55;27.00;99.90
46336;DHT22;31365;48.858;8.530;2022-09-13T10:36:29;27.10;99.90
46336;DHT22;31365;48.858;8.530;2022-09-13T10:39:20;27.00;99.90
46336;DHT22;31365;48.858;8.530;2022-09-13T10:41:53;27.20;99.90
46336;DHT22;31365;48.858;8.530;2022-09-13T10:44:28;27.50;99.90
46336;DHT22;31365;48.858;8.530;2022-09-13T10:47:02;27.70;99.90
46336;DHT22;31365;48.858;8.530;2022-09-13T10:49:51;28.00;99.90
46336;DHT22;31365;48.858;8.530;2022-09-13T10:52:31;28.00;99.90
46336;DHT22;31365;48.858;8.530;2022-09-13T10:55:23;27.90;99.90
46336;DHT22;31365;48.858;8.530;2022-09-13T10:58:11;27.80;99.90
46336;DHT22;31365;48.858;8.530;2022-09-13T11:06:58;27.80;99.90
46336;DHT22;31365;48.858;8.530;2022-09-13T11:09:40;27.80;99.90
46336;DHT22;31365;48.858;8.530;2022-09-13T11:12:21;27.80;99.90
46336;DHT22;31365;48.858;8.530;2022-09-13T11:15:06;27.50;99.90
46336;DHT22;31365;48.858;8.530;2022-09-13T11:18:00;27.50;99.90
46336;DHT22;31365;48.858;8.530;2022-09-13T11:20:46;27.40;99.90
46336;DHT22;31365;48.858;8.530;2022-09-13T11:23:43;27.30;99.90
46336;DHT22;31365;48.858;8.530;2022-09-13T11:26:33;27.30;99.90
46336;DHT22;31365;48.858;8.530;2022-09-13T11:29:22;27.10;99.90
46336;DHT22;31365;48.858;8.530;2022-09-13T11:32:15;27.00;99.90
46336;DHT22;31365;48.858;8.530;2022-09-13T11:35:13;27.10;99.90
46336;DHT22;31365;48.858;8.530;2022-09-13T11:37:58;27.10;99.90
46336;DHT22;31365;48.858;8.530;2022-09-13T11:40:50;27.20;99.90
46336;DHT22;31365;48.858;8.530;2022-09-13T11:43:36;27.30;99.90
46336;DHT22;31365;48.858;8.530;2022-09-13T11:46:26;27.50;99.90
46336;DHT22;31365;48.858;8.530;2022-09-13T11:49:19;27.90;99.90
46336;DHT22;31365;48.858;8.530;2022-09-13T11:52:10;28.30;99.90
46336;DHT22;31365;48.858;8.530;2022-09-13T11:54:58;28.40;99.90
46336;DHT22;31365;48.858;8.530;2022-09-13T11:57:38;28.60;99.90
46336;DHT22;31365;48.858;8.530;2022-09-13T12:00:18;28.90;99.90
46336;DHT22;31365;48.858;8.530;2022-09-13T12:02:57;29.10;99.40
46336;DHT22;31365;48.858;8.530;2022-09-13T12:05:38;29.40;98.10
46336;DHT22;31365;48.858;8.530;2022-09-13T12:08:13;29.70;97.10
46336;DHT22;31365;48.858;8.530;2022-09-13T12:10:49;30.20;96.60
46336;DHT22;31365;48.858;8.530;2022-09-13T12:13:22;30.90;95.30
46336;DHT22;31365;48.858;8.530;2022-09-13T12:15:56;31.40;94.60
46336;DHT22;31365;48.858;8.530;2022-09-13T12:18:31;31.20;93.90
46336;DHT22;31365;48.858;8.530;2022-09-13T12:21:07;31.00;94.50
46336;DHT22;31365;48.858;8.530;2022-09-13T12:23:53;30.60;95.00
46336;DHT22;31365;48.858;8.530;2022-09-13T12:26:28;30.50;94.40
46336;DHT22;31365;48.858;8.530;2022-09-13T12:29:03;30.40;95.00
46336;DHT22;31365;48.858;8.530;2022-09-13T12:31:38;31.20;94.50
46336;DHT22;31365;48.858;8.530;2022-09-13T12:34:09;32.40;93.00
46336;DHT22;31365;48.858;8.530;2022-09-13T12:37:00;32.90;92.20
46336;DHT22;31365;48.858;8.530;2022-09-13T12:39:59;33.50;90.80
46336;DHT22;31365;48.858;8.530;2022-09-13T12:43:03;33.70;90.50
46336;DHT22;31365;48.858;8.530;2022-09-13T12:46:00;33.90;89.10
46336;DHT22;31365;48.858;8.530;2022-09-13T12:49:06;34.50;87.20
46336;DHT22;31365;48.858;8.530;2022-09-13T12:51:59;34.90;85.20
46336;DHT22;31365;48.858;8.530;2022-09-13T12:54:51;35.20;84.80
46336;DHT22;31365;48.858;8.530;2022-09-13T12:58:19;36.20;81.30
46336;DHT22;31365;48.858;8.530;2022-09-13T13:01:13;37.20;79.00
46336;DHT22;31365;48.858;8.530;2022-09-13T13:03:52;37.20;76.40
46336;DHT22;31365;48.858;8.530;2022-09-13T13:06:29;36.90;76.20
46336;DHT22;31365;48.858;8.530;2022-09-13T13:09:03;37.40;74.80
46336;DHT22;31365;48.858;8.530;2022-09-13T13:11:56;38.30;72.50
46336;DHT22;31365;48.858;8.530;2022-09-13T13:14:29;38.70;70.60
46336;DHT22;31365;48.858;8.530;2022-09-13T13:17:40;39.00;68.80
46336;DHT22;31365;48.858;8.530;2022-09-13T13:27:38;37.40;68.10
46336;DHT22;31365;48.858;8.530;2022-09-13T13:30:33;36.70;70.90
46336;DHT22;31365;48.858;8.530;2022-09-13T13:33:19;36.80;69.80
46336;DHT22;31365;48.858;8.530;2022-09-13T13:35:50;36.90;68.40
46336;DHT22;31365;48.858;8.530;2022-09-13T13:38:40;36.70;68.30
46336;DHT22;31365;48.858;8.530;2022-09-13T13:41:46;36.60;69.50
46336;DHT22;31365;48.858;8.530;2022-09-13T13:48:11;37.20;67.40
46336;DHT22;31365;48.858;8.530;2022-09-13T13:51:16;37.30;66.70
46336;DHT22;31365;48.858;8.530;2022-09-13T13:53:55;36.80;66.30
46336;DHT22;31365;48.858;8.530;2022-09-13T13:56:43;36.20;67.70
46336;DHT22;31365;48.858;8.530;2022-09-13T13:59:18;36.00;69.30
46336;DHT22;31365;48.858;8.530;2022-09-13T14:01:55;35.80;69.50
46336;DHT22;31365;48.858;8.530;2022-09-13T14:04:54;35.30;69.50
46336;DHT22;31365;48.858;8.530;2022-09-13T14:07:57;34.50;71.30
46336;DHT22;31365;48.858;8.530;2022-09-13T14:10:58;33.70;72.30
46336;DHT22;31365;48.858;8.530;2022-09-13T14:13:45;33.20;73.30
46336;DHT22;31365;48.858;8.530;2022-09-13T14:16:31;33.10;73.90
46336;DHT22;31365;48.858;8.530;2022-09-13T14:19:23;32.90;74.50
46336;DHT22;31365;48.858;8.530;2022-09-13T14:22:13;32.80;74.80
46336;DHT22;31365;48.858;8.530;2022-09-13T14:24:43;32.40;75.00
46336;DHT22;31365;48.858;8.530;2022-09-13T14:27:17;32.20;76.00
46336;DHT22;31365;48.858;8.530;2022-09-13T14:29:49;32.00;75.60
46336;DHT22;31365;48.858;8.530;2022-09-13T14:32:21;31.80;76.60
46336;DHT22;31365;48.858;8.530;2022-09-13T14:35:00;31.30;77.00
46336;DHT22;31365;48.858;8.530;2022-09-13T14:37:32;31.00;77.60
46336;DHT22;31365;48.858;8.530;2022-09-13T14:40:17;30.80;78.40
46336;DHT22;31365;48.858;8.530;2022-09-13T14:42:49;30.40;79.20
46336;DHT22;31365;48.858;8.530;2022-09-13T14:45:20;30.10;80.20
46336;DHT22;31365;48.858;8.530;2022-09-13T14:47:54;29.80;81.40
46336;DHT22;31365;48.858;8.530;2022-09-13T14:50:30;29.50;82.20
46336;DHT22;31365;48.858;8.530;2022-09-13T14:53:04;29.30;82.40
46336;DHT22;31365;48.858;8.530;2022-09-13T14:55:37;29.20;82.50
46336;DHT22;31365;48.858;8.530;2022-09-13T14:58:15;29.20;82.90
46336;DHT22;31365;48.858;8.530;2022-09-13T15:00:50;29.10;83.70
46336;DHT22;31365;48.858;8.530;2022-09-13T15:03:22;29.10;84.20
46336;DHT22;31365;48.858;8.530;2022-09-13T15:05:54;29.00;84.40
46336;DHT22;31365;48.858;8.530;2022-09-13T15:08:41;28.90;85.30
46336;DHT22;31365;48.858;8.530;2022-09-13T15:11:15;28.70;85.80
46336;DHT22;31365;48.858;8.530;2022-09-13T15:14:02;28.70;86.00
46336;DHT22;31365;48.858;8.530;2022-09-13T15:16:47;28.60;86.60
46336;DHT22;31365;48.858;8.530;2022-09-13T15:19:36;28.50;86.90
46336;DHT22;31365;48.858;8.530;2022-09-13T15:22:17;28.40;87.90
46336;DHT22;31365;48.858;8.530;2022-09-13T15:24:50;28.40;88.00
46336;DHT22;31365;48.858;8.530;2022-09-13T15:27:28;28.30;88.60
46336;DHT22;31365;48.858;8.530;2022-09-13T15:29:59;28.30;89.00
46336;DHT22;31365;48.858;8.530;2022-09-13T15:32:33;28.20;89.10
46336;DHT22;31365;48.858;8.530;2022-09-13T15:35:16;27.90;88.80
46336;DHT22;31365;48.858;8.530;2022-09-13T15:38:00;27.80;89.50
46336;DHT22;31365;48.858;8.530;2022-09-13T15:40:43;27.70;89.90
46336;DHT22;31365;48.858;8.530;2022-09-13T15:43:12;27.60;90.40
46336;DHT22;31365;48.858;8.530;2022-09-13T15:45:41;27.60;90.40
46336;DHT22;31365;48.858;8.530;2022-09-13T15:48:16;27.50;90.70
46336;DHT22;31365;48.858;8.530;2022-09-13T15:51:08;27.30;90.70
46336;DHT22;31365;48.858;8.530;2022-09-13T15:53:41;27.20;90.90
46336;DHT22;31365;48.858;8.530;2022-09-13T15:56:13;27.10;91.00
46336;DHT22;31365;48.858;8.530;2022-09-13T15:58:46;27.00;91.20
46336;DHT22;31365;48.858;8.530;2022-09-13T16:01:15;26.90;91.50
46336;DHT22;31365;48.858;8.530;2022-09-13T16:03:44;26.90;91.60
46336;DHT22;31365;48.858;8.530;2022-09-13T16:06:12;26.90;91.70
46336;DHT22;31365;48.858;8.530;2022-09-13T16:08:42;26.80;91.80
46336;DHT22;31365;48.858;8.530;2022-09-13T16:11:10;26.70;92.10
46336;DHT22;31365;48.858;8.530;2022-09-13T16:13:38;26.60;91.70
46336;DHT22;31365;48.858;8.530;2022-09-13T16:16:09;26.50;91.90
46336;DHT22;31365;48.858;8.530;2022-09-13T16:18:40;26.40;91.90
46336;DHT22;31365;48.858;8.530;2022-09-13T16:21:08;26.30;91.90
46336;DHT22;31365;48.858;8.530;2022-09-13T16:23:36;26.30;92.20
46336;DHT22;31365;48.858;8.530;2022-09-13T16:26:06;26.20;92.30
46336;DHT22;31365;48.858;8.530;2022-09-13T16:28:34;26.20;92.40
46336;DHT22;31365;48.858;8.530;2022-09-13T16:31:03;26.20;92.40
46336;DHT22;31365;48.858;8.530;2022-09-13T16:33:31;26.10;93.10
46336;DHT22;31365;48.858;8.530;2022-09-13T16:36:00;26.00;93.20
46336;DHT22;31365;48.858;8.530;2022-09-13T16:38:29;25.90;93.20
46336;DHT22;31365;48.858;8.530;2022-09-13T16:40:57;25.80;93.10
46336;DHT22;31365;48.858;8.530;2022-09-13T16:43:27;26.00;93.40
46336;DHT22;31365;48.858;8.530;2022-09-13T16:45:55;25.80;93.50
46336;DHT22;31365;48.858;8.530;2022-09-13T16:48:23;25.60;93.50
46336;DHT22;31365;48.858;8.530;2022-09-13T16:50:52;25.60;93.60